createdAt,value
2022-11-16T00:01:47.978Z,96.53
2022-11-16T00:04:15.931Z,96.31
2022-11-16T00:06:43.629Z,96.47
2022-11-16T00:09:27.872Z,96.33
2022-11-16T00:12:01.874Z,96.13
2022-11-16T00:14:32.331Z,95.99
2022-11-16T00:17:01.024Z,95.89
2022-11-16T00:19:29.199Z,95.98
2022-11-16T00:21:56.947Z,95.86
2022-11-16T00:24:24.877Z,96.13
2022-11-16T00:26:54.498Z,96.05
2022-11-16T00:29:25.475Z,96.17
2022-11-16T00:31:54.126Z,96.31
2022-11-16T00:34:23.201Z,96.17
2022-11-16T00:36:51.023Z,96.44
2022-11-16T00:39:20.843Z,96.48
2022-11-16T00:41:49.685Z,96.54
2022-11-16T00:44:18.787Z,95.92
2022-11-16T00:46:46.651Z,95.54
2022-11-16T00:49:14.833Z,95.87
2022-11-16T00:51:42.855Z,96.04
2022-11-16T00:54:11.202Z,96.16
2022-11-16T00:56:39.558Z,96.32
2022-11-16T00:59:08.269Z,96.46
2022-11-16T01:01:36.150Z,96.85
2022-11-16T01:04:04.219Z,96.80
2022-11-16T01:06:32.195Z,96.96
2022-11-16T01:09:01.801Z,96.96
2022-11-16T01:11:45.694Z,96.90
2022-11-16T01:14:13.438Z,96.85
2022-11-16T01:16:43.220Z,96.74
2022-11-16T01:19:11.016Z,96.60
2022-11-16T01:21:38.843Z,96.70
2022-11-16T01:24:06.692Z,96.93
2022-11-16T01:26:34.396Z,96.78
2022-11-16T01:29:02.210Z,96.51
2022-11-16T01:31:33.570Z,96.69
2022-11-16T01:34:03.728Z,96.84
2022-11-16T01:36:31.584Z,96.80
2022-11-16T01:39:00.930Z,97.00
2022-11-16T01:41:33.323Z,96.78
2022-11-16T01:44:07.241Z,96.70
2022-11-16T01:46:48.937Z,96.64
2022-11-16T01:49:20.582Z,96.59
2022-11-16T01:51:55.612Z,96.72
2022-11-16T01:54:29.430Z,96.85
2022-11-16T01:57:03.198Z,96.81
2022-11-16T01:59:39.511Z,96.96
2022-11-16T02:02:12.003Z,96.74
2022-11-16T02:04:40.419Z,96.92
2022-11-16T02:07:57.602Z,96.85
2022-11-16T02:10:40.708Z,96.46
2022-11-16T02:13:36.566Z,96.50
2022-11-16T02:16:48.249Z,96.20
2022-11-16T02:19:35.074Z,96.66
2022-11-16T02:22:21.756Z,96.95
2022-11-16T02:25:05.041Z,97.20
2022-11-16T02:28:12.140Z,97.24
2022-11-16T02:30:45.118Z,97.51
2022-11-16T02:33:19.277Z,97.36
2022-11-16T02:35:52.494Z,97.00
2022-11-16T02:38:31.182Z,96.93
2022-11-16T02:41:07.687Z,96.76
2022-11-16T02:43:42.725Z,96.94
2022-11-16T02:46:18.580Z,97.15
2022-11-16T02:48:51.306Z,97.01
2022-11-16T02:51:20.739Z,97.15
2022-11-16T02:54:05.038Z,97.19
2022-11-16T02:56:44.780Z,97.25
2022-11-16T02:59:17.512Z,97.46
2022-11-16T03:02:03.056Z,97.49
2022-11-16T03:04:45.579Z,97.56
2022-11-16T03:07:18.794Z,97.56
2022-11-16T03:09:49.188Z,97.61
2022-11-16T03:12:23.942Z,97.77
2022-11-16T03:14:59.814Z,97.82
2022-11-16T03:17:43.456Z,98.06
2022-11-16T03:20:29.714Z,98.22
2022-11-16T03:23:04.892Z,97.76
2022-11-16T03:25:47.467Z,97.68
2022-11-16T03:28:23.459Z,97.89
2022-11-16T03:31:17.814Z,98.10
2022-11-16T03:33:52.498Z,98.44
2022-11-16T03:36:33.621Z,98.38
2022-11-16T03:39:07.935Z,98.32
2022-11-16T03:41:39.090Z,97.78
2022-11-16T03:44:08.915Z,97.67
2022-11-16T03:46:37.074Z,97.53
2022-11-16T03:49:05.982Z,97.58
2022-11-16T03:51:36.285Z,97.78
2022-11-16T03:54:05.388Z,97.90
2022-11-16T03:56:33.690Z,98.27
2022-11-16T03:59:01.311Z,98.13
2022-11-16T04:01:30.393Z,98.24
2022-11-16T04:03:58.535Z,98.02
2022-11-16T04:06:42.969Z,98.07
2022-11-16T04:09:27.120Z,98.13
2022-11-16T04:12:10.417Z,97.85
2022-11-16T04:14:55.011Z,97.53
2022-11-16T04:17:40.383Z,97.17
2022-11-16T04:20:30.988Z,96.83
2022-11-16T04:23:30.191Z,96.97
2022-11-16T04:25:58.170Z,96.90
2022-11-16T04:28:31.526Z,97.00
2022-11-16T04:31:19.497Z,96.92
2022-11-16T04:34:11.028Z,96.93
2022-11-16T04:36:57.528Z,96.84
2022-11-16T04:39:26.402Z,96.71
2022-11-16T04:42:10.051Z,96.78
2022-11-16T04:44:52.630Z,96.66
2022-11-16T04:47:20.727Z,96.76
2022-11-16T04:49:48.878Z,96.79
2022-11-16T04:52:16.522Z,96.84
2022-11-16T04:54:44.417Z,96.91
2022-11-16T04:57:12.300Z,96.86
2022-11-16T04:59:40.268Z,96.76
2022-11-16T05:02:08.501Z,96.58
2022-11-16T05:04:42.354Z,96.45
2022-11-16T05:07:13.765Z,96.46
2022-11-16T05:09:44.886Z,96.36
2022-11-16T05:12:23.063Z,96.46
2022-11-16T05:14:55.262Z,96.49
2022-11-16T05:17:26.366Z,96.56
2022-11-16T05:20:10.640Z,96.21
2022-11-16T05:22:44.421Z,96.13
2022-11-16T05:25:12.388Z,96.06
2022-11-16T05:27:40.115Z,96.06
2022-11-16T05:30:09.085Z,96.05
2022-11-16T05:32:36.701Z,96.12
2022-11-16T05:35:05.365Z,96.09
2022-11-16T05:37:33.657Z,96.15
2022-11-16T05:40:02.678Z,96.16
2022-11-16T05:42:38.796Z,96.23
2022-11-16T05:45:07.063Z,96.42
2022-11-16T05:47:34.932Z,96.19
2022-11-16T05:50:02.777Z,96.12
2022-11-16T05:52:33.951Z,95.91
2022-11-16T05:55:06.740Z,95.76
2022-11-16T05:57:38.468Z,95.83
2022-11-16T06:00:07.338Z,95.60
2022-11-16T06:02:42.636Z,95.65
2022-11-16T06:05:17.371Z,95.60
2022-11-16T06:07:45.390Z,95.73
2022-11-16T06:10:13.346Z,95.49
2022-11-16T06:12:42.918Z,95.57
2022-11-16T06:15:11.963Z,95.43
2022-11-16T06:17:39.685Z,95.27
2022-11-16T06:20:08.308Z,95.25
2022-11-16T06:22:35.956Z,95.28
2022-11-16T06:25:06.613Z,95.18
2022-11-16T06:27:34.825Z,95.13
2022-11-16T06:30:03.003Z,95.05
2022-11-16T06:32:32.393Z,94.96
2022-11-16T06:35:00.425Z,94.94
2022-11-16T06:37:28.183Z,94.84
2022-11-16T06:39:56.928Z,94.65
2022-11-16T06:42:24.744Z,94.50
2022-11-16T06:44:53.770Z,94.36
2022-11-16T06:47:21.992Z,94.27
2022-11-16T06:49:49.718Z,94.31
2022-11-16T06:52:21.274Z,94.29
2022-11-16T06:54:49.172Z,94.31
2022-11-16T06:57:16.944Z,94.22
2022-11-16T06:59:44.721Z,94.17
2022-11-16T07:02:13.634Z,94.02
2022-11-16T07:04:42.438Z,93.99
2022-11-16T07:07:15.896Z,94.06
2022-11-16T07:09:45.035Z,93.97
2022-11-16T07:12:13.118Z,93.98
2022-11-16T07:14:48.735Z,93.76
2022-11-16T07:17:19.962Z,93.76
2022-11-16T07:19:47.604Z,93.38
2022-11-16T07:22:15.877Z,93.52
2022-11-16T07:24:44.059Z,93.77
2022-11-16T07:27:12.087Z,93.78
2022-11-16T07:29:43.372Z,93.55
2022-11-16T07:32:23.351Z,93.47
2022-11-16T07:35:06.464Z,93.48
2022-11-16T07:37:34.490Z,93.47
2022-11-16T07:40:02.723Z,93.53
2022-11-16T07:42:31.379Z,93.55
2022-11-16T07:45:14.092Z,93.81
2022-11-16T07:47:52.195Z,94.00
2022-11-16T07:50:25.666Z,94.08
2022-11-16T07:52:55.420Z,93.93
2022-11-16T07:55:25.551Z,94.18
2022-11-16T07:57:53.776Z,94.27
2022-11-16T08:00:22.572Z,94.09
2022-11-16T08:02:58.786Z,94.25
2022-11-16T08:05:26.802Z,94.09
2022-11-16T08:07:56.340Z,93.89
2022-11-16T08:10:25.220Z,93.53
2022-11-16T08:12:53.203Z,93.61
2022-11-16T08:15:21.029Z,93.92
2022-11-16T08:17:48.913Z,93.92
2022-11-16T08:20:18.681Z,93.92
2022-11-16T08:22:52.146Z,94.02
2022-11-16T08:25:26.806Z,94.23
2022-11-16T08:28:08.060Z,94.39
2022-11-16T08:30:39.853Z,94.28
2022-11-16T08:33:10.002Z,94.17
2022-11-16T08:35:38.097Z,93.91
2022-11-16T08:38:05.801Z,93.76
2022-11-16T08:40:38.674Z,93.86
2022-11-16T08:43:08.597Z,93.65
2022-11-16T08:45:38.446Z,93.78
2022-11-16T08:48:07.745Z,93.92
2022-11-16T08:51:02.323Z,94.05
2022-11-16T08:53:25.276Z,93.96
2022-11-16T08:55:53.002Z,94.03
2022-11-16T08:58:20.666Z,93.75
2022-11-16T09:00:48.433Z,93.72
2022-11-16T09:03:16.082Z,93.67
2022-11-16T09:05:44.014Z,93.63
2022-11-16T09:08:22.555Z,93.64
2022-11-16T09:10:52.300Z,93.58
2022-11-16T09:13:19.935Z,93.62
2022-11-16T09:15:47.570Z,93.61
2022-11-16T09:18:15.216Z,93.49
2022-11-16T09:20:48.228Z,93.68
2022-11-16T09:23:22.281Z,93.69
2022-11-16T09:25:54.313Z,93.70
2022-11-16T09:28:27.199Z,93.59
2022-11-16T09:31:04.299Z,93.51
2022-11-16T09:33:34.873Z,93.63
2022-11-16T09:36:06.916Z,93.65
2022-11-16T09:39:13.975Z,93.59
2022-11-16T09:41:53.111Z,93.21
2022-11-16T09:44:42.869Z,93.34
2022-11-16T09:47:22.210Z,93.28
2022-11-16T09:50:01.489Z,93.10
2022-11-16T09:52:36.627Z,92.85
2022-11-16T09:55:27.859Z,93.08
2022-11-16T09:57:59.480Z,92.98
2022-11-16T10:00:30.323Z,93.14
2022-11-16T10:03:01.439Z,93.11
2022-11-16T10:05:47.695Z,93.08
2022-11-16T10:08:31.601Z,92.95
2022-11-16T10:11:05.097Z,92.85
2022-11-16T10:13:53.216Z,92.89
2022-11-16T10:16:37.861Z,92.86
2022-11-16T10:19:17.969Z,92.75
2022-11-16T10:21:57.088Z,92.79
2022-11-16T10:24:28.406Z,92.57
2022-11-16T10:27:21.763Z,92.45
2022-11-16T10:30:06.910Z,92.44
2022-11-16T10:32:44.913Z,92.13
2022-11-16T10:35:18.170Z,92.35
2022-11-16T10:37:50.133Z,92.33
2022-11-16T10:40:18.107Z,92.29
2022-11-16T10:42:51.970Z,92.35
2022-11-16T10:45:29.521Z,91.94
2022-11-16T10:48:04.015Z,92.12
2022-11-16T10:50:38.845Z,91.91
2022-11-16T10:53:06.869Z,91.59
2022-11-16T10:55:34.549Z,91.70
2022-11-16T10:58:05.082Z,91.64
2022-11-16T11:00:51.545Z,91.57
2022-11-16T11:03:45.791Z,91.57
2022-11-16T11:06:13.765Z,91.36
2022-11-16T11:08:41.463Z,91.46
2022-11-16T11:11:36.761Z,91.54
2022-11-16T11:14:10.667Z,91.22
2022-11-16T11:16:41.243Z,91.03
2022-11-16T11:19:28.337Z,91.28
2022-11-16T11:21:58.301Z,91.09
2022-11-16T11:24:45.150Z,91.14
2022-11-16T11:27:13.844Z,91.13
2022-11-16T11:29:43.262Z,91.26
2022-11-16T11:32:23.600Z,91.15
2022-11-16T11:34:56.191Z,91.23
2022-11-16T11:37:30.324Z,91.01
2022-11-16T11:40:22.191Z,90.93
2022-11-16T11:42:54.257Z,90.99
2022-11-16T11:45:27.744Z,90.85
2022-11-16T11:48:07.104Z,90.74
2022-11-16T11:50:50.730Z,90.80
2022-11-16T11:53:30.925Z,90.82
2022-11-16T11:56:00.209Z,90.86
2022-11-16T11:58:38.417Z,90.57
2022-11-16T12:01:25.260Z,90.56
2022-11-16T12:04:13.463Z,90.61
2022-11-16T12:07:03.241Z,90.61
2022-11-16T12:09:47.131Z,90.96
2022-11-16T12:12:24.204Z,90.77
2022-11-16T12:15:23.729Z,90.45
2022-11-16T12:18:01.996Z,90.30
2022-11-16T12:20:59.839Z,90.26
2022-11-16T12:23:51.585Z,90.30
2022-11-16T12:26:24.244Z,89.99
2022-11-16T12:29:12.733Z,89.99
2022-11-16T12:32:09.069Z,90.09
2022-11-16T12:35:09.420Z,90.04
2022-11-16T12:37:44.167Z,90.24
2022-11-16T12:40:30.960Z,90.09
2022-11-16T12:43:08.743Z,89.99
2022-11-16T12:45:48.603Z,90.01
2022-11-16T12:48:47.135Z,89.94
2022-11-16T12:51:23.614Z,89.85
2022-11-16T12:54:12.450Z,89.79
2022-11-16T12:56:48.969Z,89.64
2022-11-16T12:59:48.944Z,89.65
2022-11-16T13:02:39.809Z,89.59
2022-11-16T13:05:17.952Z,89.54
2022-11-16T13:07:50.391Z,89.72
2022-11-16T13:10:22.870Z,89.61
2022-11-16T13:13:21.894Z,89.43
2022-11-16T13:15:47.728Z,89.22
2022-11-16T13:18:20.158Z,89.33
2022-11-16T13:21:01.730Z,89.34
2022-11-16T13:23:32.623Z,89.28
2022-11-16T13:26:19.970Z,89.44
2022-11-16T13:29:07.033Z,89.36
2022-11-16T13:31:40.317Z,88.91
2022-11-16T13:34:17.913Z,88.57
2022-11-16T13:36:46.322Z,88.21
2022-11-16T13:39:22.582Z,88.31
2022-11-16T13:42:06.995Z,88.16
2022-11-16T13:44:34.996Z,88.19
2022-11-16T13:47:05.834Z,88.33
2022-11-16T13:49:38.093Z,88.29
2022-11-16T13:52:23.134Z,88.40
2022-11-16T13:54:55.974Z,88.32
2022-11-16T13:57:29.530Z,88.24
2022-11-16T14:00:05.689Z,88.20
2022-11-16T14:02:41.415Z,88.02
2022-11-16T14:05:12.201Z,88.10
2022-11-16T14:07:50.621Z,88.29
2022-11-16T14:10:44.821Z,88.18
2022-11-16T14:13:47.109Z,88.02
2022-11-16T14:16:14.687Z,88.03
2022-11-16T14:18:43.117Z,88.11
2022-11-16T14:21:13.254Z,87.95
2022-11-16T14:23:56.849Z,88.10
2022-11-16T14:26:27.178Z,88.09
2022-11-16T14:29:26.641Z,88.22
2022-11-16T14:31:59.647Z,88.35
2022-11-16T14:34:48.063Z,88.16
2022-11-16T14:37:21.510Z,88.01
2022-11-16T14:39:51.187Z,87.96
2022-11-16T14:42:25.631Z,87.89
2022-11-16T14:45:06.076Z,87.83
2022-11-16T14:47:37.003Z,87.74
2022-11-16T14:50:17.156Z,87.67
2022-11-16T14:52:48.686Z,87.88
2022-11-16T14:55:25.696Z,87.73
2022-11-16T14:58:16.276Z,87.47
2022-11-16T15:01:02.195Z,87.47
2022-11-16T15:03:35.852Z,87.50
2022-11-16T15:06:06.616Z,87.53
2022-11-16T15:08:51.773Z,87.54
2022-11-16T15:11:54.660Z,87.30
2022-11-16T15:14:36.968Z,87.36
2022-11-16T15:17:07.854Z,87.34
2022-11-16T15:19:36.102Z,87.35
2022-11-16T15:22:04.490Z,87.32
2022-11-16T15:24:34.791Z,87.18
2022-11-16T15:27:08.513Z,87.26
2022-11-16T15:29:36.362Z,87.09
2022-11-16T15:32:06.181Z,87.02
2022-11-16T15:34:33.814Z,87.18
2022-11-16T15:37:01.454Z,87.03
2022-11-16T15:39:34.187Z,87.10
2022-11-16T15:42:04.271Z,87.04
2022-11-16T15:44:33.521Z,86.97
2022-11-16T15:47:03.024Z,86.93
2022-11-16T15:49:37.640Z,86.70
2022-11-16T15:52:05.307Z,86.85
2022-11-16T15:54:51.042Z,86.85
2022-11-16T15:57:20.804Z,86.86
2022-11-16T15:59:56.420Z,86.78
2022-11-16T16:02:28.446Z,86.82
2022-11-16T16:04:56.665Z,86.83
2022-11-16T16:07:41.458Z,86.65
2022-11-16T16:10:25.773Z,86.59
2022-11-16T16:12:55.050Z,86.59
2022-11-16T16:15:31.397Z,86.75
2022-11-16T16:18:01.288Z,86.81
2022-11-16T16:20:31.922Z,86.77
2022-11-16T16:23:24.786Z,86.90
2022-11-16T16:25:52.401Z,86.79
2022-11-16T16:28:20.008Z,86.85
2022-11-16T16:30:50.940Z,86.80
2022-11-16T16:33:21.845Z,86.71
2022-11-16T16:35:52.534Z,86.75
2022-11-16T16:38:20.798Z,86.71
2022-11-16T16:40:48.640Z,86.71
2022-11-16T16:43:16.345Z,86.92
2022-11-16T16:45:45.397Z,86.77
2022-11-16T16:48:13.131Z,86.72
2022-11-16T16:50:41.150Z,86.59
2022-11-16T16:53:12.201Z,86.63
2022-11-16T16:55:40.888Z,86.50
2022-11-16T16:58:11.839Z,86.54
2022-11-16T17:00:40.667Z,86.56
2022-11-16T17:03:08.365Z,86.65
2022-11-16T17:05:36.027Z,86.49
2022-11-16T17:08:03.717Z,86.38
2022-11-16T17:10:32.427Z,86.38
2022-11-16T17:13:03.073Z,86.52
2022-11-16T17:15:30.756Z,86.51
2022-11-16T17:17:59.194Z,86.48
2022-11-16T17:20:26.882Z,86.30
2022-11-16T17:22:54.570Z,86.41
2022-11-16T17:25:22.414Z,86.38
2022-11-16T17:27:50.037Z,86.33
2022-11-16T17:30:17.691Z,86.33
2022-11-16T17:32:45.334Z,86.21
2022-11-16T17:35:13.042Z,86.26
2022-11-16T17:37:40.674Z,86.40
2022-11-16T17:40:11.811Z,86.40
2022-11-16T17:42:39.456Z,86.46
2022-11-16T17:45:07.714Z,86.43
2022-11-16T17:47:35.332Z,86.39
2022-11-16T17:50:04.123Z,86.27
2022-11-16T17:52:31.781Z,86.19
2022-11-16T17:54:59.378Z,86.30
2022-11-16T17:57:26.998Z,86.18
2022-11-16T17:59:54.685Z,86.21
2022-11-16T18:02:22.332Z,86.33
2022-11-16T18:04:51.499Z,86.52
2022-11-16T18:07:19.489Z,86.33
2022-11-16T18:09:47.201Z,86.35
2022-11-16T18:12:14.829Z,86.14
2022-11-16T18:14:42.643Z,86.11
2022-11-16T18:17:10.285Z,86.22
2022-11-16T18:19:37.913Z,86.11
2022-11-16T18:22:05.572Z,86.13
2022-11-16T18:24:33.181Z,86.34
2022-11-16T18:27:00.809Z,86.21
2022-11-16T18:29:28.604Z,86.06
2022-11-16T18:31:56.219Z,86.26
2022-11-16T18:34:24.140Z,86.31
2022-11-16T18:36:51.809Z,86.22
2022-11-16T18:39:19.557Z,86.11
2022-11-16T18:41:51.711Z,86.21
2022-11-16T18:44:22.650Z,86.07
2022-11-16T18:46:50.263Z,86.08
2022-11-16T18:49:18.302Z,86.07
2022-11-16T18:51:46.089Z,86.04
2022-11-16T18:54:13.737Z,86.21
2022-11-16T18:56:41.376Z,86.12
2022-11-16T18:59:09.088Z,86.00
2022-11-16T19:01:36.888Z,85.94
2022-11-16T19:04:04.622Z,85.94
2022-11-16T19:06:32.296Z,85.90
2022-11-16T19:09:00.207Z,85.80
2022-11-16T19:11:28.513Z,86.04
2022-11-16T19:14:00.590Z,86.21
2022-11-16T19:16:28.553Z,86.00
2022-11-16T19:18:56.283Z,85.99
2022-11-16T19:21:24.647Z,85.81
2022-11-16T19:23:55.099Z,85.84
2022-11-16T19:26:27.455Z,85.77
2022-11-16T19:28:55.394Z,85.75
2022-11-16T19:31:24.653Z,85.86
2022-11-16T19:34:10.735Z,85.77
2022-11-16T19:36:38.385Z,85.84
2022-11-16T19:39:06.067Z,85.76
2022-11-16T19:41:34.017Z,85.82
2022-11-16T19:44:02.129Z,85.89
2022-11-16T19:46:32.655Z,85.72
2022-11-16T19:49:00.407Z,85.69
2022-11-16T19:51:30.762Z,85.68
2022-11-16T19:54:00.165Z,85.60
2022-11-16T19:56:28.231Z,85.51
2022-11-16T19:58:56.197Z,85.52
2022-11-16T20:01:28.963Z,85.50
2022-11-16T20:04:00.284Z,85.59
2022-11-16T20:06:30.720Z,85.38
2022-11-16T20:09:02.116Z,85.31
2022-11-16T20:11:34.033Z,85.45
2022-11-16T20:14:04.682Z,85.39
2022-11-16T20:16:38.645Z,85.28
2022-11-16T20:19:08.797Z,85.23
2022-11-16T20:21:39.011Z,85.20
2022-11-16T20:24:09.579Z,85.32
2022-11-16T20:26:41.919Z,85.18
2022-11-16T20:29:11.874Z,85.30
2022-11-16T20:31:42.477Z,85.04
2022-11-16T20:34:14.064Z,84.98
2022-11-16T20:36:44.768Z,84.98
2022-11-16T20:39:17.672Z,84.93
2022-11-16T20:41:46.337Z,84.94
2022-11-16T20:44:21.861Z,85.05
2022-11-16T20:46:52.124Z,85.02
2022-11-16T20:49:20.105Z,85.03
2022-11-16T20:51:48.394Z,85.00
2022-11-16T20:54:16.075Z,85.01
2022-11-16T20:56:44.399Z,85.00
2022-11-16T20:59:12.181Z,84.96
2022-11-16T21:01:41.555Z,84.79
2022-11-16T21:04:10.774Z,84.94
2022-11-16T21:06:38.449Z,84.70
2022-11-16T21:09:06.389Z,84.81
2022-11-16T21:11:53.955Z,84.94
2022-11-16T21:14:22.919Z,84.84
2022-11-16T21:16:50.604Z,84.67
2022-11-16T21:19:18.308Z,84.56
2022-11-16T21:21:45.942Z,84.50
2022-11-16T21:24:13.560Z,84.47
2022-11-16T21:26:41.177Z,84.58
2022-11-16T21:29:08.827Z,84.45
2022-11-16T21:31:36.872Z,84.48
2022-11-16T21:34:05.828Z,84.51
2022-11-16T21:36:33.794Z,84.50
2022-11-16T21:39:01.486Z,84.61
2022-11-16T21:41:29.122Z,84.64
2022-11-16T21:43:57.163Z,84.41
2022-11-16T21:46:26.899Z,84.44
2022-11-16T21:48:56.155Z,84.33
2022-11-16T21:51:26.187Z,84.32
2022-11-16T21:53:54.693Z,84.38
2022-11-16T21:56:24.547Z,84.32
2022-11-16T21:58:53.614Z,84.46
2022-11-16T22:01:22.810Z,84.46
2022-11-16T22:04:10.526Z,84.47
2022-11-16T22:06:54.328Z,84.62
2022-11-16T22:09:22.047Z,84.39
2022-11-16T22:11:49.672Z,84.27
2022-11-16T22:14:17.316Z,84.47
2022-11-16T22:16:44.988Z,84.17
2022-11-16T22:19:12.583Z,84.35
2022-11-16T22:21:40.194Z,84.40
2022-11-16T22:24:08.811Z,84.32
2022-11-16T22:26:38.004Z,83.98
2022-11-16T22:29:05.597Z,83.93
2022-11-16T22:31:33.195Z,84.12
2022-11-16T22:34:00.795Z,84.05
2022-11-16T22:36:28.398Z,84.18
2022-11-16T22:38:57.045Z,84.07
2022-11-16T22:41:24.683Z,83.86
2022-11-16T22:43:52.305Z,83.97
2022-11-16T22:46:19.918Z,84.00
2022-11-16T22:48:47.992Z,83.87
2022-11-16T22:51:31.831Z,83.92
2022-11-16T22:54:01.762Z,84.00
2022-11-16T22:56:31.658Z,83.94
2022-11-16T22:59:02.398Z,84.00
2022-11-16T23:01:30.041Z,83.92
2022-11-16T23:03:58.020Z,83.73
2022-11-16T23:06:25.700Z,83.78
2022-11-16T23:08:54.401Z,83.67
2022-11-16T23:11:39.905Z,83.58
2022-11-16T23:14:27.594Z,83.50
2022-11-16T23:16:55.362Z,83.55
2022-11-16T23:19:38.685Z,83.55
2022-11-16T23:22:24.068Z,83.43
2022-11-16T23:25:06.685Z,83.43
2022-11-16T23:27:53.490Z,83.31
2022-11-16T23:30:21.492Z,83.31
2022-11-16T23:32:49.140Z,83.32
2022-11-16T23:35:17.062Z,83.40
2022-11-16T23:38:01.852Z,83.18
2022-11-16T23:40:37.774Z,83.47
2022-11-16T23:43:22.789Z,83.37
2022-11-16T23:45:50.964Z,83.30
2022-11-16T23:48:19.109Z,82.98
2022-11-16T23:50:46.882Z,82.93
2022-11-16T23:53:14.528Z,83.21
2022-11-16T23:55:42.218Z,83.20
2022-11-16T23:58:14.481Z,83.30
